Time;durP1;ratioP1;P1;durP2;ratioP2;P2;SDS_P1;SDS_P2;PMS_P1;PMS_P2;Temp;Humidity;BMP_temperature;BMP_pressure;BME280_temperature;BME280_humidity;BME280_pressure;Samples;Min_cycle;Max_cycle;Signal;HPM_P1;HPM_P2
2021/06/05 00:00:33;;;;;;;11.82;9.13;;;359.00;2329.60;;;;;;5013048;28;20025;-84
2021/06/05 00:03:01;;;;;;;10.90;7.97;;;359.00;2329.60;;;;;;4981581;28;20100;-84
2021/06/05 00:05:31;;;;;;;13.15;7.55;;;359.00;2329.60;;;;;;4999745;28;20375;-83
2021/06/05 00:07:58;;;;;;;9.10;7.28;;;358.90;2329.60;;;;;;4999134;28;20058;-83
2021/06/05 00:10:32;;;;;;;11.75;8.20;;;359.00;2329.60;;;;;;4999624;28;20030;-83
2021/06/05 00:12:59;;;;;;;12.65;8.75;;;359.00;2329.60;;;;;;4997334;28;20052;-84
2021/06/05 00:15:34;;;;;;;13.40;8.80;;;359.00;2329.60;;;;;;5014137;28;20030;-83
2021/06/05 00:18:04;;;;;;;11.23;8.05;;;359.00;2329.60;;;;;;4981870;28;20033;-84
2021/06/05 00:20:40;;;;;;;11.88;7.47;;;359.00;2329.60;;;;;;5017555;28;20050;-84
2021/06/05 00:23:10;;;;;;;13.07;8.98;;;359.00;2329.60;;;;;;4984307;28;20080;-85
2021/06/05 00:25:38;;;;;;;13.20;7.57;;;359.00;2329.60;;;;;;5003992;28;20025;-83
2021/06/05 00:28:08;;;;;;;10.57;7.10;;;358.90;2329.60;;;;;;5006091;28;20041;-84
2021/06/05 00:30:58;;;;;;;12.98;7.65;;;358.90;2329.60;;;;;;5015615;28;20037;-83
2021/06/05 00:33:32;;;;;;;11.25;7.28;;;358.80;2329.60;;;;;;4999202;28;20111;-83
2021/06/05 00:36:09;;;;;;;;;;;;;;;;;;;;;
2021/06/05 00:41:43;;;;;;;12.02;8.18;;;358.80;2329.60;;;;;;4992952;28;20042;-83
2021/06/05 00:44:37;;;;;;;11.95;8.55;;;358.60;2329.60;;;;;;4979320;28;20054;-83
2021/06/05 00:47:14;;;;;;;14.68;8.88;;;358.60;2329.60;;;;;;4989718;28;20085;-83
2021/06/05 00:49:54;;;;;;;19.48;11.38;;;358.60;2329.60;;;;;;4957739;28;20062;-83
2021/06/05 00:52:42;;;;;;;19.17;11.27;;;358.50;2329.60;;;;;;4978673;28;20113;-82
2021/06/05 01:01:47;;;;;;;10.30;7.63;;;358.40;2329.60;;;;;;4956261;29;20403;-83
2021/06/05 01:21:19;;;;;;;9.07;7.20;;;358.40;2329.60;;;;;;4955983;29;20093;-83
2021/06/05 01:28:13;;;;;;;9.90;7.57;;;333.70;2329.60;;;;;;4955713;29;20079;-83
2021/06/05 01:33:48;;;;;;;10.32;6.75;;;358.40;2329.60;;;;;;4972616;28;20402;-83
2021/06/05 01:36:59;;;;;;;10.27;7.40;;;333.70;2329.60;;;;;;4978757;28;20034;-83
2021/06/05 01:59:58;;;;;;;9.55;7.68;;;358.50;2329.60;;;;;;4924918;29;20519;-83
2021/06/05 02:02:53;;;;;;;9.13;7.75;;;333.50;2329.60;;;;;;4919655;29;20526;-81
2021/06/05 02:05:29;;;;;;;10.77;7.75;;;333.70;2329.60;;;;;;4913746;29;20042;-83
2021/06/05 02:07:55;;;;;;;12.65;7.95;;;333.70;2329.60;;;;;;4970847;28;20128;-83
2021/06/05 02:10:26;;;;;;;9.88;7.45;;;358.60;2329.60;;;;;;4978102;28;20057;-82
2021/06/05 02:12:55;;;;;;;12.73;8.20;;;333.50;2329.60;;;;;;4977756;28;20030;-83
2021/06/05 02:15:47;;;;;;;11.57;8.05;;;333.50;2329.60;;;;;;4977737;28;20029;-83
2021/06/05 02:18:20;;;;;;;11.02;8.18;;;333.50;2329.60;;;;;;4978030;28;20387;-82
2021/06/05 02:21:11;;;;;;;11.45;7.70;;;333.50;2329.60;;;;;;4979563;28;20022;-83
2021/06/05 02:24:35;;;;;;;10.10;8.50;;;333.40;2329.60;;;;;;4977918;28;20418;-83
2021/06/05 02:27:06;;;;;;;9.35;7.72;;;333.30;2329.60;;;;;;4968325;28;20521;-82
2021/06/05 02:29:36;;;;;;;11.52;7.57;;;333.20;2329.60;;;;;;4961517;28;20041;-83
2021/06/05 02:32:11;;;;;;;9.57;7.50;;;333.30;2329.60;;;;;;4994968;28;20153;-83
2021/06/05 02:34:38;;;;;;;12.38;8.23;;;333.40;2329.60;;;;;;4945536;28;20486;-83
2021/06/05 02:37:08;;;;;;;10.35;7.50;;;333.40;2329.60;;;;;;4977648;28;20081;-83
2021/06/05 02:39:36;;;;;;;9.63;8.27;;;333.30;2329.60;;;;;;4976469;28;20119;-83
2021/06/05 02:42:09;;;;;;;9.93;7.50;;;358.40;2329.60;;;;;;4961445;28;20035;-83
2021/06/05 02:44:35;;;;;;;;;;;333.40;2329.60;;;;;;4997764;28;20449;-83
2021/06/05 02:47:09;;;;;;;9.40;7.53;;;333.40;2329.60;;;;;;4997936;28;19936;-83
2021/06/05 02:49:38;;;;;;;10.60;8.10;;;333.40;2329.60;;;;;;4981245;28;20026;-83
2021/06/05 02:52:10;;;;;;;11.20;7.82;;;333.30;2329.60;;;;;;4996790;28;20040;-83
2021/06/05 02:54:40;;;;;;;10.73;8.38;;;333.30;2329.60;;;;;;4996760;28;20470;-83
2021/06/05 02:57:10;;;;;;;12.20;8.00;;;333.20;2329.60;;;;;;4996220;28;20014;-84
2021/06/05 02:59:40;;;;;;;14.32;8.32;;;333.20;2329.60;;;;;;4980338;28;20062;-83
2021/06/05 03:02:06;;;;;;;10.35;8.05;;;333.20;2329.60;;;;;;4995816;28;20088;-83
2021/06/05 03:04:33;;;;;;;11.35;8.50;;;333.20;2329.60;;;;;;4996509;28;20030;-84
2021/06/05 03:07:01;;;;;;;11.20;8.75;;;333.30;2329.60;;;;;;4996436;28;20159;-83
2021/06/05 03:09:27;;;;;;;11.90;7.85;;;333.30;2329.60;;;;;;4996215;28;20022;-83
2021/06/05 03:11:53;;;;;;;13.90;8.90;;;333.40;2329.60;;;;;;4996293;28;20022;-83
2021/06/05 03:14:21;;;;;;;9.80;8.05;;;333.20;2329.60;;;;;;4996579;28;20018;-83
2021/06/05 03:20:05;;;;;;;12.85;8.93;;;333.40;2329.60;;;;;;4972947;28;20042;-83
2021/06/05 03:22:31;;;;;;;20.67;10.18;;;333.40;2329.60;;;;;;4981068;28;20033;-84
2021/06/05 03:25:11;;;;;;;14.15;9.68;;;332.90;2329.60;;;;;;4995746;28;20026;-83
2021/06/05 03:27:39;;;;;;;10.50;8.38;;;333.00;2329.60;;;;;;5010439;28;20038;-83
2021/06/05 03:34:17;;;;;;;11.80;9.95;;;333.00;2329.60;;;;;;5003076;28;20512;-83
2021/06/05 03:43:52;;;;;;;11.18;8.55;;;333.20;2329.60;;;;;;4905323;28;20048;-82
2021/06/05 04:04:14;;;;;;;;;;;;;;;;;;;;;
2021/06/05 04:13:28;;;;;;;10.82;8.15;;;333.20;2329.60;;;;;;4927467;29;20570;-83
2021/06/05 04:16:18;;;;;;;12.85;8.30;;;333.10;2329.60;;;;;;4968852;28;20096;-84
2021/06/05 05:18:56;;;;;;;11.90;8.25;;;358.80;2329.60;;;;;;4905769;29;20035;-86
2021/06/05 05:25:16;;;;;;;11.68;7.65;;;359.00;2329.60;;;;;;4862213;29;20852;-82
2021/06/05 05:27:46;;;;;;;14.93;7.70;;;359.10;2329.60;;;;;;4849834;29;20081;-83
2021/06/05 05:30:19;;;;;;;13.70;7.43;;;359.30;2329.60;;;;;;4959293;28;20497;-84
2021/06/05 05:32:48;;;;;;;11.02;7.40;;;384.10;2329.60;;;;;;4978960;28;20469;-86
2021/06/05 05:35:18;;;;;;;13.23;7.15;;;384.20;2329.60;;;;;;4978172;28;20031;-83
2021/06/05 05:37:44;;;;;;;15.10;7.18;;;384.40;2329.60;;;;;;4962119;28;20031;-82
2021/06/05 05:40:12;;;;;;;11.88;7.30;;;384.40;2329.60;;;;;;4978643;28;20524;-83
2021/06/05 05:42:46;;;;;;;10.73;7.35;;;384.60;2329.60;;;;;;4995938;28;20061;-83
2021/06/05 05:45:13;;;;;;;14.02;7.97;;;384.60;2329.60;;;;;;4978004;28;20137;-83
2021/06/05 05:47:39;;;;;;;14.40;8.25;;;384.80;2329.60;;;;;;4978507;28;20034;-82
2021/06/05 05:50:08;;;;;;;10.25;7.43;;;384.90;2329.60;;;;;;4978084;28;20022;-82
2021/06/05 05:52:34;;;;;;;11.32;7.68;;;384.90;2329.60;;;;;;4978360;28;20089;-82
2021/06/05 05:55:01;;;;;;;18.08;9.23;;;409.60;2355.20;;;;;;4978531;28;20027;-82
2021/06/05 05:57:27;;;;;;;15.43;9.90;;;409.60;2355.20;;;;;;4978144;28;20109;-82
2021/06/05 05:59:53;;;;;;;16.85;9.68;;;409.70;2355.20;;;;;;4978449;28;20121;-82
2021/06/05 06:02:18;;;;;;;18.45;9.80;;;409.80;2355.20;;;;;;4994907;28;20527;-81
2021/06/05 06:04:44;;;;;;;16.90;8.57;;;409.90;2355.20;;;;;;4978093;28;20031;-83
2021/06/05 06:07:10;;;;;;;26.38;9.70;;;410.00;2355.20;;;;;;4977964;28;20066;-84
2021/06/05 06:09:36;;;;;;;14.13;8.73;;;410.20;2355.20;;;;;;4978100;28;20026;-82
2021/06/05 06:12:02;;;;;;;15.18;7.70;;;410.30;2355.20;;;;;;4977781;28;20073;-82
2021/06/05 06:14:28;;;;;;;15.88;8.02;;;410.40;2355.20;;;;;;4977829;28;20454;-84
2021/06/05 06:16:54;;;;;;;12.98;7.63;;;410.50;2355.20;;;;;;4962242;28;20058;-82
2021/06/05 06:19:20;;;;;;;11.90;7.85;;;435.20;2355.20;;;;;;4961438;28;20418;-83
2021/06/05 06:21:46;;;;;;;14.60;7.13;;;435.20;2355.20;;;;;;4977684;28;20041;-81
2021/06/05 06:24:12;;;;;;;12.30;7.13;;;435.40;2355.20;;;;;;4977712;28;20050;-82
2021/06/05 06:26:39;;;;;;;10.38;6.90;;;435.60;2355.20;;;;;;4977650;28;20034;-82
2021/06/05 06:29:17;;;;;;;14.95;7.18;;;435.80;2355.20;;;;;;4977955;28;20129;-81
2021/06/05 06:31:46;;;;;;;11.52;7.28;;;435.90;2355.20;;;;;;4978112;28;20449;-82
2021/06/05 06:34:12;;;;;;;11.55;7.30;;;436.10;2355.20;;;;;;4977530;28;20038;-82
2021/06/05 06:36:43;;;;;;;15.25;7.63;;;460.80;2380.80;;;;;;4977726;28;20475;-81
2021/06/05 06:39:10;;;;;;;20.42;8.57;;;460.80;2380.80;;;;;;4977495;28;20036;-80
2021/06/05 06:41:36;;;;;;;13.93;8.27;;;460.90;2380.80;;;;;;4977623;28;20027;-80
2021/06/05 06:44:04;;;;;;;13.98;7.93;;;460.90;2380.80;;;;;;4977258;28;20058;-79
2021/06/05 06:46:36;;;;;;;17.23;8.05;;;461.10;2380.80;;;;;;4977349;28;20034;-79
2021/06/05 06:49:04;;;;;;;12.60;7.43;;;461.40;2380.80;;;;;;4995100;28;20430;-80
2021/06/05 06:51:30;;;;;;;14.00;6.95;;;461.50;2380.80;;;;;;4995097;28;20377;-79
2021/06/05 06:53:57;;;;;;;15.27;6.90;;;461.40;2380.80;;;;;;4977131;28;20121;-79
2021/06/05 06:56:24;;;;;;;23.85;7.30;;;486.40;2380.80;;;;;;4977409;28;20026;-80
2021/06/05 06:58:50;;;;;;;14.60;7.53;;;486.40;2380.80;;;;;;4994800;28;20022;-79
2021/06/05 07:01:18;;;;;;;13.77;7.10;;;486.50;2380.80;;;;;;4976985;28;20031;-80
2021/06/05 07:03:44;;;;;;;10.85;6.97;;;486.60;2380.80;;;;;;4977254;28;20050;-79
2021/06/05 07:06:10;;;;;;;13.80;6.88;;;486.80;2380.80;;;;;;4977256;28;20080;-80
2021/06/05 07:08:39;;;;;;;13.65;6.25;;;486.90;2380.80;;;;;;4977013;28;20030;-77
2021/06/05 07:11:19;;;;;;;10.35;6.07;;;487.00;2380.80;;;;;;4977274;28;20470;-77
2021/06/05 07:13:45;;;;;;;12.85;6.20;;;487.10;2380.80;;;;;;4976218;28;20454;-77
2021/06/05 07:16:11;;;;;;;13.50;7.22;;;487.30;2380.80;;;;;;4976804;28;20030;-78
2021/06/05 07:18:38;;;;;;;10.13;6.40;;;487.30;2380.80;;;;;;4977019;28;20386;-78
2021/06/05 07:21:07;;;;;;;12.35;6.85;;;512.20;2380.80;;;;;;4976733;28;20026;-78
2021/06/05 07:23:34;;;;;;;12.13;6.60;;;512.50;2380.80;;;;;;4976997;28;20034;-78
2021/06/05 07:26:04;;;;;;;12.35;6.35;;;512.60;2380.80;;;;;;4976976;28;20478;-78
2021/06/05 07:28:39;;;;;;;9.95;6.97;;;512.80;2380.80;;;;;;4976502;28;20113;-77
2021/06/05 07:31:07;;;;;;;16.65;6.88;;;537.70;2406.40;;;;;;4976736;28;20382;-77
2021/06/05 07:33:33;;;;;;;15.43;7.72;;;538.00;2406.40;;;;;;4976555;28;20034;-77
2021/06/05 07:36:00;;;;;;;11.73;7.75;;;538.20;2406.40;;;;;;4976537;28;20037;-77
2021/06/05 07:38:28;;;;;;;13.00;7.50;;;538.50;2406.40;;;;;;4976843;28;20026;-80
2021/06/05 07:40:55;;;;;;;14.07;6.43;;;563.20;2432.00;;;;;;4976734;28;20057;-77
2021/06/05 07:43:24;;;;;;;15.02;6.47;;;563.30;2432.00;;;;;;4976165;28;20054;-78
2021/06/05 07:45:51;;;;;;;9.60;6.45;;;563.50;2432.00;;;;;;4976856;28;20423;-76
2021/06/05 07:48:17;;;;;;;13.15;6.15;;;563.50;2432.00;;;;;;4993871;28;20025;-77
2021/06/05 07:50:43;;;;;;;10.30;5.88;;;563.20;2432.00;;;;;;4976363;28;20033;-77
2021/06/05 07:53:09;;;;;;;13.07;6.80;;;563.40;2432.00;;;;;;4994260;28;20113;-77
2021/06/05 07:55:35;;;;;;;8.52;5.60;;;563.70;2432.00;;;;;;4976619;28;20062;-78
2021/06/05 07:58:01;;;;;;;14.15;6.45;;;563.60;2432.00;;;;;;4976349;28;20037;-76
2021/06/05 08:00:31;;;;;;;11.50;7.38;;;564.00;2432.00;;;;;;4976640;28;20050;-77
2021/06/05 08:02:57;;;;;;;12.57;7.50;;;563.90;2432.00;;;;;;4976580;28;20034;-76
2021/06/05 08:05:24;;;;;;;12.23;7.70;;;589.00;2432.00;;;;;;4976458;28;20026;-76
2021/06/05 08:07:51;;;;;;;12.48;7.07;;;589.10;2432.00;;;;;;4976583;28;20037;-77
2021/06/05 08:10:18;;;;;;;13.43;6.40;;;589.20;2432.00;;;;;;4976269;28;20026;-77
2021/06/05 08:12:44;;;;;;;13.57;7.20;;;589.50;2406.40;;;;;;4976409;28;20120;-76
2021/06/05 08:15:13;;;;;;;15.30;7.25;;;589.60;2355.20;;;;;;4993993;28;20062;-74
2021/06/05 08:17:39;;;;;;;8.70;6.38;;;589.70;2227.20;;;;;;4976004;28;20077;-77
2021/06/05 08:20:08;;;;;;;16.38;9.52;;;589.70;2227.20;;;;;;4976456;28;20085;-78
2021/06/05 08:22:34;;;;;;;17.25;8.93;;;614.40;2176.00;;;;;;4976535;28;20170;-76
2021/06/05 08:24:59;;;;;;;15.55;11.75;;;589.50;2124.80;;;;;;4996130;28;20117;-77
2021/06/05 08:27:26;;;;;;;10.13;6.00;;;614.40;2124.80;;;;;;4980098;28;20023;-75
2021/06/05 08:29:54;;;;;;;11.63;5.13;;;614.50;2124.80;;;;;;4997952;28;20390;-77
2021/06/05 08:32:20;;;;;;;8.43;5.97;;;614.70;2048.00;;;;;;4977117;28;20034;-76
2021/06/05 08:34:46;;;;;;;9.32;5.70;;;614.80;2099.20;;;;;;4996250;28;20022;-76
2021/06/05 08:37:12;;;;;;;9.50;4.93;;;614.90;2099.20;;;;;;4996522;28;20699;-77
2021/06/05 08:39:38;;;;;;;11.27;6.25;;;615.20;2073.60;;;;;;4994407;28;20037;-76
2021/06/05 08:42:07;;;;;;;10.82;4.97;;;615.30;2022.40;;;;;;4978862;28;20026;-76
2021/06/05 08:44:35;;;;;;;9.95;5.15;;;615.00;2022.40;;;;;;4992271;28;20049;-74
2021/06/05 08:47:16;;;;;;;8.30;5.25;;;615.10;2022.40;;;;;;5015510;28;20454;-74
2021/06/05 08:49:43;;;;;;;7.45;5.53;;;614.90;2022.40;;;;;;5015700;28;20026;-74
2021/06/05 08:52:37;;;;;;;16.05;9.00;;;640.00;1894.40;;;;;;5012865;28;20403;-74
2021/06/05 08:55:39;;;;;;;7.38;4.57;;;640.10;1894.40;;;;;;4989977;28;20383;-74
2021/06/05 08:58:12;;;;;;;7.10;3.70;;;615.00;1843.20;;;;;;4909721;29;20032;-73
2021/06/05 09:00:44;;;;;;;5.28;3.40;;;615.20;1920.00;;;;;;4987922;28;20364;-74
2021/06/05 09:03:12;;;;;;;;;;;615.00;1920.00;;;;;;5005458;28;20022;-74
2021/06/05 09:05:47;;;;;;;12.27;8.40;;;615.20;1894.40;;;;;;4984338;28;19909;-74
2021/06/05 09:08:18;;;;;;;10.95;4.80;;;640.00;1817.60;;;;;;4998439;28;20046;-73
2021/06/05 09:10:45;;;;;;;8.38;4.10;;;640.20;1766.40;;;;;;5012402;28;20389;-73
2021/06/05 09:13:12;;;;;;;10.00;4.45;;;640.70;1715.20;;;;;;4994099;28;20085;-73
2021/06/05 09:15:37;;;;;;;7.53;4.47;;;640.90;1664.00;;;;;;4977839;28;20026;-73
2021/06/05 09:18:06;;;;;;;6.10;3.60;;;640.90;1664.00;;;;;;4978204;28;20397;-73
2021/06/05 09:20:38;;;;;;;9.00;4.60;;;665.90;1638.40;;;;;;4977808;28;20030;-73
2021/06/05 09:23:24;;;;;;;6.25;3.70;;;666.10;1638.40;;;;;;4995297;28;20034;-74
2021/06/05 09:25:51;;;;;;;8.65;5.50;;;665.70;1587.20;;;;;;4966421;28;20065;-74
2021/06/05 09:28:37;;;;;;;7.03;3.40;;;665.70;1587.20;;;;;;4976697;28;20027;-75
2021/06/05 09:31:17;;;;;;;8.15;3.50;;;665.60;1561.60;;;;;;4976927;28;20043;-76
2021/06/05 09:33:42;;;;;;;8.05;4.47;;;665.60;1536.00;;;;;;4989443;28;20057;-74
2021/06/05 09:36:35;;;;;;;9.85;6.57;;;640.40;1536.00;;;;;;4971807;28;20378;-75
2021/06/05 09:39:04;;;;;;;8.48;4.20;;;640.50;1536.00;;;;;;4970108;28;20093;-75
2021/06/05 09:41:36;;;;;;;7.00;4.00;;;640.70;1561.60;;;;;;4978389;28;20478;-74
2021/06/05 09:44:13;;;;;;;5.80;3.97;;;665.90;1561.60;;;;;;4978604;28;20065;-74
2021/06/05 09:46:53;;;;;;;9.10;3.88;;;665.90;1561.60;;;;;;4978804;28;20041;-76
2021/06/05 09:49:33;;;;;;;5.03;3.58;;;666.20;1510.40;;;;;;4993374;28;20383;-78
2021/06/05 09:52:24;;;;;;;5.22;3.72;;;666.10;1459.20;;;;;;4969781;28;20022;-78
2021/06/05 09:54:53;;;;;;;10.27;4.67;;;665.90;1459.20;;;;;;4963726;28;20050;-79
2021/06/05 09:57:18;;;;;;;11.32;4.55;;;666.30;1561.60;;;;;;4969250;28;20029;-79
2021/06/05 10:00:20;;;;;;;8.02;4.38;;;666.50;1536.00;;;;;;4970916;28;20035;-77
2021/06/05 10:02:51;;;;;;;8.20;3.50;;;691.60;1484.80;;;;;;4982427;28;20046;-77
2021/06/05 10:05:17;;;;;;;10.47;5.33;;;691.60;1484.80;;;;;;4995913;28;20486;-77
2021/06/05 10:07:43;;;;;;;6.63;3.50;;;691.90;1484.80;;;;;;4964650;28;20309;-77
2021/06/05 10:10:23;;;;;;;5.10;3.28;;;692.10;1459.20;;;;;;4969612;28;20023;-78
2021/06/05 10:12:52;;;;;;;5.53;3.13;;;716.90;1484.80;;;;;;4978075;28;20038;-82
2021/06/05 10:15:23;;;;;;;6.82;3.70;;;691.40;1484.80;;;;;;4978673;28;20030;-79
2021/06/05 10:18:21;;;;;;;5.32;3.30;;;691.40;1510.40;;;;;;4996430;28;20105;-81
2021/06/05 10:20:55;;;;;;;5.78;3.78;;;691.20;1536.00;;;;;;4972976;28;20049;-79
2021/06/05 10:23:29;;;;;;;6.72;3.83;;;691.30;1536.00;;;;;;4994534;28;20037;-78
2021/06/05 10:26:19;;;;;;;15.18;3.88;;;691.60;1536.00;;;;;;4978281;28;20034;-78
2021/06/05 10:28:52;;;;;;;8.55;4.32;;;691.40;1510.40;;;;;;4972173;28;20035;-78
2021/06/05 10:31:20;;;;;;;6.82;3.45;;;692.10;1536.00;;;;;;4995023;28;20470;-79
2021/06/05 10:33:49;;;;;;;6.93;4.57;;;716.80;1484.80;;;;;;4977700;28;20035;-78
2021/06/05 10:36:29;;;;;;;11.63;4.50;;;692.10;1510.40;;;;;;4977987;28;20053;-79
2021/06/05 10:39:07;;;;;;;5.43;3.88;;;692.10;1484.80;;;;;;4978006;28;20023;-79
2021/06/05 10:41:39;;;;;;;6.10;3.40;;;716.80;1484.80;;;;;;4995482;28;20034;-78
2021/06/05 10:44:07;;;;;;;5.93;3.30;;;691.50;1484.80;;;;;;4977108;28;20046;-79
2021/06/05 10:46:57;;;;;;;7.40;3.30;;;692.00;1510.40;;;;;;4977244;28;20462;-77
2021/06/05 10:49:55;;;;;;;7.65;3.67;;;692.10;1459.20;;;;;;4977570;28;20030;-78
2021/06/05 10:52:42;;;;;;;8.10;3.90;;;716.90;1459.20;;;;;;4955359;28;20457;-78
2021/06/05 10:55:08;;;;;;;5.93;3.25;;;717.20;1484.80;;;;;;4977579;28;20030;-79
2021/06/05 10:57:48;;;;;;;7.68;3.53;;;717.40;1459.20;;;;;;4977336;28;20351;-80
2021/06/05 11:00:43;;;;;;;5.68;3.72;;;717.40;1408.00;;;;;;4977447;28;20034;-80
2021/06/05 11:03:11;;;;;;;7.05;3.30;;;717.50;1408.00;;;;;;4994793;28;20375;-79
2021/06/05 11:05:39;;;;;;;8.23;4.03;;;717.50;1433.60;;;;;;4976905;28;20030;-79
2021/06/05 11:08:08;;;;;;;9.82;4.68;;;742.50;1484.80;;;;;;4977118;28;20500;-79
2021/06/05 11:10:54;;;;;;;9.80;5.15;;;742.80;1459.20;;;;;;4977070;28;20026;-80
2021/06/05 11:13:34;;;;;;;11.85;5.32;;;743.10;1433.60;;;;;;4976714;28;20031;-79
2021/06/05 11:16:21;;;;;;;7.63;3.95;;;768.00;1408.00;;;;;;4976939;28;20466;-79
2021/06/05 11:19:30;;;;;;;9.45;4.03;;;743.30;1382.40;;;;;;4994441;28;20022;-78
2021/06/05 11:22:04;;;;;;;7.45;3.80;;;743.20;1356.80;;;;;;4972371;28;20082;-77
2021/06/05 11:24:30;;;;;;;8.05;3.67;;;768.00;1331.20;;;;;;4973868;28;20411;-75
2021/06/05 11:26:58;;;;;;;6.50;3.88;;;768.00;1331.20;;;;;;4956667;28;20027;-75
2021/06/05 11:29:27;;;;;;;8.10;3.20;;;742.90;1331.20;;;;;;4993258;28;20054;-76
2021/06/05 11:32:19;;;;;;;7.40;3.55;;;742.90;1356.80;;;;;;4963956;28;20033;-73
2021/06/05 11:34:45;;;;;;;8.98;3.92;;;742.90;1356.80;;;;;;4951887;29;20042;-73
2021/06/05 11:37:13;;;;;;;5.78;3.70;;;742.90;1356.80;;;;;;4957148;28;20138;-75
2021/06/05 11:39:45;;;;;;;6.05;3.67;;;742.40;1356.80;;;;;;4973011;28;20443;-75
2021/06/05 11:42:14;;;;;;;;;;;742.70;1356.80;;;;;;4960663;28;20022;-76
2021/06/05 11:44:44;;;;;;;7.38;3.83;;;743.30;1356.80;;;;;;4978634;28;19981;-76
2021/06/05 11:47:20;;;;;;;6.07;3.83;;;743.30;1356.80;;;;;;4989300;28;20045;-76
2021/06/05 11:50:01;;;;;;;9.23;4.55;;;743.30;1331.20;;;;;;4982461;28;20038;-76
2021/06/05 11:52:31;;;;;;;7.43;4.17;;;768.20;1331.20;;;;;;4987260;28;20093;-74
2021/06/05 11:55:16;;;;;;;6.50;3.38;;;743.30;1331.20;;;;;;4991776;28;20053;-74
2021/06/05 11:58:04;;;;;;;7.03;4.03;;;743.10;1305.60;;;;;;4956208;28;20086;-75
2021/06/05 12:00:32;;;;;;;7.40;3.58;;;768.50;1331.20;;;;;;4949292;28;20045;-75
2021/06/05 12:03:56;;;;;;;6.05;3.67;;;768.80;1331.20;;;;;;4960166;28;20057;-75
2021/06/05 12:06:25;;;;;;;9.18;5.00;;;768.70;1305.60;;;;;;4917032;28;20138;-75
2021/06/05 12:09:11;;;;;;;6.20;3.50;;;768.80;1280.00;;;;;;4974643;28;20030;-76
2021/06/05 12:11:42;;;;;;;10.05;5.15;;;768.90;1305.60;;;;;;4996746;28;20030;-75
2021/06/05 12:14:18;;;;;;;11.30;5.30;;;768.90;1254.40;;;;;;4979532;28;20744;-76
2021/06/05 12:16:51;;;;;;;9.25;4.15;;;768.80;1280.00;;;;;;4979141;28;20415;-75
2021/06/05 12:19:24;;;;;;;8.40;5.28;;;768.90;1280.00;;;;;;4978579;28;20037;-75
2021/06/05 12:21:49;;;;;;;9.00;4.50;;;793.60;1305.60;;;;;;4979359;28;20034;-76
2021/06/05 12:24:25;;;;;;;9.10;5.00;;;793.70;1280.00;;;;;;4978992;28;20386;-75
2021/06/05 12:27:01;;;;;;;5.07;3.88;;;768.90;1280.00;;;;;;4978793;28;20030;-75
2021/06/05 12:29:38;;;;;;;5.68;3.42;;;768.40;1280.00;;;;;;4996343;28;20026;-76
2021/06/05 12:32:41;;;;;;;8.18;3.72;;;743.10;1305.60;;;;;;4957229;28;20540;-76
2021/06/05 12:35:35;;;;;;;6.45;3.63;;;768.30;1280.00;;;;;;4936017;29;20047;-77
2021/06/05 12:38:03;;;;;;;6.05;4.25;;;768.40;1305.60;;;;;;4957739;28;20398;-77
2021/06/05 12:40:54;;;;;;;7.13;3.88;;;768.90;1280.00;;;;;;4959626;28;20027;-77
2021/06/05 12:43:25;;;;;;;4.68;3.00;;;793.60;1280.00;;;;;;4959778;28;20039;-80
2021/06/05 12:45:51;;;;;;;6.30;4.13;;;793.70;1254.40;;;;;;5013558;28;20121;-77
2021/06/05 12:48:19;;;;;;;8.85;4.72;;;793.90;1280.00;;;;;;5014607;28;20036;-78
2021/06/05 12:50:47;;;;;;;7.38;4.22;;;794.10;1280.00;;;;;;5012471;28;20053;-76
2021/06/05 12:53:22;;;;;;;7.88;4.80;;;794.00;1280.00;;;;;;4995345;28;20049;-78
2021/06/05 12:56:00;;;;;;;9.82;5.70;;;768.80;1280.00;;;;;;4995337;28;20026;-77
2021/06/05 12:58:32;;;;;;;9.18;6.50;;;794.00;1305.60;;;;;;4990655;28;20026;-77
2021/06/05 13:00:58;;;;;;;14.65;10.63;;;794.10;1331.20;;;;;;4995485;28;20022;-78
2021/06/05 13:03:28;;;;;;;7.38;4.32;;;794.40;1280.00;;;;;;4996806;28;20052;-78
2021/06/05 13:06:13;;;;;;;8.23;5.57;;;819.40;1280.00;;;;;;4996657;28;20019;-80
2021/06/05 13:08:40;;;;;;;8.93;4.53;;;819.60;1254.40;;;;;;4995281;28;20033;-77
2021/06/05 13:11:10;;;;;;;11.50;4.00;;;819.70;1228.80;;;;;;4995171;28;20425;-78
2021/06/05 13:13:37;;;;;;;6.90;3.72;;;794.50;1254.40;;;;;;4995443;28;20437;-80
2021/06/05 13:16:15;;;;;;;7.35;3.33;;;819.20;1280.00;;;;;;4995665;28;20439;-78
2021/06/05 13:18:45;;;;;;;9.52;3.80;;;819.50;1254.40;;;;;;4996453;28;20399;-79
2021/06/05 13:21:29;;;;;;;12.15;4.30;;;819.60;1254.40;;;;;;4996427;28;20378;-79
2021/06/05 13:24:27;;;;;;;8.73;3.63;;;819.80;1228.80;;;;;;4995245;28;20041;-79
2021/06/05 13:27:17;;;;;;;6.18;4.30;;;819.80;1177.60;;;;;;4941833;28;20125;-79
2021/06/05 13:29:49;;;;;;;6.05;3.92;;;820.00;1228.80;;;;;;4996497;28;20030;-79
2021/06/05 13:32:35;;;;;;;5.13;3.03;;;819.60;1177.60;;;;;;4995855;28;20648;-80
2021/06/05 13:35:06;;;;;;;6.97;4.80;;;794.50;1228.80;;;;;;4994835;28;20026;-81
2021/06/05 13:37:35;;;;;;;10.63;5.50;;;819.50;1228.80;;;;;;4995182;28;20473;-81
2021/06/05 13:40:10;;;;;;;10.45;7.20;;;819.70;1203.20;;;;;;4994673;28;20126;-81
2021/06/05 13:42:40;;;;;;;8.95;5.95;;;820.00;1203.20;;;;;;4995058;28;20034;-81
2021/06/05 13:45:13;;;;;;;6.75;4.78;;;819.70;1177.60;;;;;;4994962;28;20482;-81
2021/06/05 13:47:40;;;;;;;10.80;4.80;;;794.20;1228.80;;;;;;4996765;28;20030;-81
2021/06/05 13:50:07;;;;;;;8.82;4.30;;;794.30;1228.80;;;;;;4998201;28;20026;-80
2021/06/05 13:52:34;;;;;;;7.20;3.70;;;793.90;1228.80;;;;;;4994676;28;20128;-80
2021/06/05 13:55:09;;;;;;;8.43;3.40;;;793.80;1228.80;;;;;;4995576;28;20022;-80
2021/06/05 13:57:34;;;;;;;6.05;3.60;;;794.00;1228.80;;;;;;4994945;28;20386;-80
2021/06/05 14:00:00;;;;;;;8.15;3.75;;;794.20;1228.80;;;;;;4994417;28;20030;-80
2021/06/05 14:02:27;;;;;;;4.43;3.20;;;794.00;1228.80;;;;;;4996025;28;20037;-81
2021/06/05 14:04:52;;;;;;;12.02;4.25;;;794.20;1228.80;;;;;;4994408;28;20043;-80
2021/06/05 14:07:22;;;;;;;6.38;3.63;;;794.30;1254.40;;;;;;4993890;28;20116;-80
2021/06/05 14:09:49;;;;;;;5.82;3.55;;;819.40;1254.40;;;;;;4994666;28;20430;-80
2021/06/05 14:12:21;;;;;;;11.50;4.07;;;819.60;1228.80;;;;;;4994350;28;20053;-79
2021/06/05 14:14:48;;;;;;;7.90;3.60;;;819.80;1228.80;;;;;;4994193;28;20026;-80
2021/06/05 14:17:14;;;;;;;9.02;3.28;;;819.70;1203.20;;;;;;4994266;28;20030;-79
2021/06/05 14:19:41;;;;;;;7.28;3.78;;;819.70;1228.80;;;;;;4994228;28;20022;-80
2021/06/05 14:22:08;;;;;;;9.98;3.58;;;819.70;1254.40;;;;;;4993520;28;20431;-80
2021/06/05 14:24:35;;;;;;;9.63;3.80;;;819.70;1203.20;;;;;;4995559;28;20061;-79
2021/06/05 14:27:01;;;;;;;6.15;3.45;;;819.40;1203.20;;;;;;4995240;28;20360;-79
2021/06/05 14:29:30;;;;;;;7.25;3.67;;;794.50;1228.80;;;;;;4993710;28;20146;-79
2021/06/05 14:31:57;;;;;;;8.02;3.60;;;819.60;1228.80;;;;;;4993969;28;20474;-79
2021/06/05 14:34:25;;;;;;;10.43;4.10;;;819.60;1228.80;;;;;;4993762;28;20466;-79
2021/06/05 14:36:51;;;;;;;8.00;3.50;;;819.60;1203.20;;;;;;4993595;28;20030;-79
2021/06/05 14:39:17;;;;;;;11.32;3.60;;;819.80;1203.20;;;;;;4993791;28;20030;-79
2021/06/05 14:42:05;;;;;;;5.38;3.75;;;819.20;1203.20;;;;;;4993778;28;20034;-80
2021/06/05 14:44:33;;;;;;;7.95;3.60;;;793.90;1254.40;;;;;;4993559;28;20085;-80
2021/06/05 14:46:59;;;;;;;6.80;3.50;;;794.20;1254.40;;;;;;4993317;28;20029;-79
2021/06/05 14:49:25;;;;;;;8.10;3.70;;;794.30;1254.40;;;;;;4993405;28;20459;-79
2021/06/05 14:51:51;;;;;;;7.32;4.20;;;794.50;1254.40;;;;;;5009957;28;20030;-81
2021/06/05 14:54:19;;;;;;;8.82;4.28;;;819.20;1254.40;;;;;;4995025;28;20042;-79
2021/06/05 14:56:45;;;;;;;7.65;4.32;;;819.20;1254.40;;;;;;4993285;28;20081;-80
2021/06/05 14:59:11;;;;;;;5.63;4.13;;;794.50;1228.80;;;;;;4993601;28;20438;-79
2021/06/05 15:01:38;;;;;;;10.38;5.55;;;794.00;1280.00;;;;;;4993496;28;20121;-77
2021/06/05 15:04:05;;;;;;;8.27;4.00;;;794.40;1254.40;;;;;;4994326;28;20030;-80
2021/06/05 15:06:31;;;;;;;6.60;3.85;;;794.50;1254.40;;;;;;4994139;28;20022;-80
2021/06/05 15:08:56;;;;;;;19.73;16.33;;;794.20;1228.80;;;;;;4993641;28;20470;-79
2021/06/05 15:11:24;;;;;;;31.45;28.08;;;794.00;1254.40;;;;;;5009366;28;20038;-80
2021/06/05 15:13:50;;;;;;;11.02;7.70;;;819.60;1254.40;;;;;;4993550;28;20080;-83
2021/06/05 15:16:17;;;;;;;8.75;4.90;;;794.30;1280.00;;;;;;4995053;28;20033;-84
2021/06/05 15:18:44;;;;;;;64.82;58.08;;;793.90;1280.00;;;;;;4993862;28;20031;-81